Time;durP1;ratioP1;P1;durP2;ratioP2;P2;SDS_P1;SDS_P2;PMS_P1;PMS_P2;Temp;Humidity;BMP_temperature;BMP_pressure;BME280_temperature;BME280_humidity;BME280_pressure;Samples;Min_cycle;Max_cycle;Signal;HPM_P1;HPM_P2
2023/04/04 00:00:40;;;;;;;13.90;5.50;;;0.90;99.90;;;;;;2603724;54;20179;31
2023/04/04 00:03:16;;;;;;;13.40;6.27;;;0.90;99.90;;;;;;2603557;54;20070;31
2023/04/04 00:05:52;;;;;;;11.30;5.60;;;0.90;99.90;;;;;;2622001;46;20037;31
2023/04/04 00:08:28;;;;;;;11.07;4.85;;;0.90;99.90;;;;;;2603794;54;20556;31
2023/04/04 00:11:07;;;;;;;9.82;5.63;;;0.90;99.90;;;;;;2702209;39;20531;31
2023/04/04 00:13:42;;;;;;;14.20;5.60;;;0.90;99.90;;;;;;2603435;54;20711;31
2023/04/04 00:16:18;;;;;;;12.20;5.33;;;0.90;99.90;;;;;;2603557;54;22138;31
2023/04/04 00:18:54;;;;;;;9.35;4.78;;;0.90;99.90;;;;;;2702078;39;20524;31
2023/04/04 00:21:33;;;;;;;10.80;4.85;;;0.90;99.90;;;;;;2603521;54;20892;31
2023/04/04 00:24:11;;;;;;;13.25;5.95;;;0.90;99.90;;;;;;2603470;54;21231;31
2023/04/04 00:26:50;;;;;;;10.23;5.13;;;0.80;99.90;;;;;;2603686;54;20626;31
2023/04/04 00:29:26;;;;;;;11.38;4.80;;;0.80;99.90;;;;;;2603553;54;20049;31
2023/04/04 00:32:07;;;;;;;11.38;4.43;;;0.80;99.90;;;;;;2701981;39;21563;31
2023/04/04 00:34:45;;;;;;;12.95;4.75;;;0.80;99.90;;;;;;2622154;46;20026;31
2023/04/04 00:37:21;;;;;;;10.05;4.28;;;0.70;99.90;;;;;;2621196;46;20030;31
2023/04/04 00:39:58;;;;;;;12.38;4.93;;;0.70;99.90;;;;;;2615677;46;20048;31
2023/04/04 00:42:39;;;;;;;10.65;4.88;;;0.70;99.90;;;;;;2621730;46;20052;31
2023/04/04 00:45:14;;;;;;;10.85;5.50;;;0.60;99.90;;;;;;2603549;54;20081;31
2023/04/04 00:47:50;;;;;;;11.65;6.47;;;0.60;99.90;;;;;;2702227;39;20509;31
2023/04/04 00:50:26;;;;;;;13.50;5.65;;;0.60;99.90;;;;;;2603442;54;21355;31
2023/04/04 00:53:01;;;;;;;15.68;5.65;;;0.60;99.90;;;;;;2603563;54;20793;31
2023/04/04 00:55:38;;;;;;;13.77;5.27;;;0.60;99.90;;;;;;2621566;46;20022;31
2023/04/04 00:58:18;;;;;;;12.00;5.15;;;0.60;99.90;;;;;;2603503;54;20973;31
2023/04/04 01:00:53;;;;;;;8.82;5.25;;;0.50;99.90;;;;;;2603523;54;20628;31
2023/04/04 01:03:29;;;;;;;10.90;5.25;;;0.50;99.90;;;;;;2621854;46;20894;31
2023/04/04 01:06:05;;;;;;;12.15;5.50;;;0.60;99.90;;;;;;2621851;46;20914;31
2023/04/04 01:08:42;;;;;;;9.25;4.75;;;0.60;99.90;;;;;;2621087;46;20029;31
2023/04/04 01:11:18;;;;;;;15.93;5.55;;;0.60;99.90;;;;;;2621309;46;20026;31
2023/04/04 01:13:59;;;;;;;11.75;4.10;;;0.60;99.90;;;;;;2614985;46;20108;31
2023/04/04 01:16:34;;;;;;;9.30;4.35;;;0.60;99.90;;;;;;2702130;39;20996;31
2023/04/04 01:19:13;;;;;;;12.38;4.78;;;0.60;99.90;;;;;;2621921;46;20890;31
2023/04/04 01:21:49;;;;;;;13.33;5.03;;;0.60;99.90;;;;;;2603411;54;20099;31
2023/04/04 01:24:24;;;;;;;9.27;4.13;;;0.60;99.90;;;;;;2720282;39;22798;31
2023/04/04 01:27:05;;;;;;;10.52;4.45;;;0.50;99.90;;;;;;2701845;39;22362;31
2023/04/04 01:29:54;;;;;;;13.00;5.90;;;0.60;99.90;;;;;;2603430;54;20018;31
2023/04/04 01:32:31;;;;;;;10.18;4.80;;;0.50;99.90;;;;;;2603526;54;20033;31
2023/04/04 01:35:19;;;;;;;11.93;4.67;;;0.50;99.90;;;;;;2603553;54;20537;31
2023/04/04 01:38:11;;;;;;;15.75;5.68;;;0.50;99.90;;;;;;2621641;46;20795;31
2023/04/04 01:40:47;;;;;;;9.52;5.10;;;0.50;99.90;;;;;;2603379;54;20033;31
2023/04/04 01:43:28;;;;;;;10.95;4.82;;;0.50;99.90;;;;;;2603360;54;20116;31
2023/04/04 01:46:05;;;;;;;12.52;5.47;;;0.50;99.90;;;;;;2603376;54;20144;31
2023/04/04 01:48:41;;;;;;;9.55;5.10;;;0.50;99.90;;;;;;2603251;54;20872;31
2023/04/04 01:51:18;;;;;;;12.53;6.00;;;0.40;99.90;;;;;;2603201;54;20027;31
2023/04/04 01:53:53;;;;;;;14.43;5.72;;;0.40;99.90;;;;;;2603082;54;20144;31
2023/04/04 01:56:30;;;;;;;10.40;5.32;;;0.30;99.90;;;;;;2603151;54;20103;31
2023/04/04 01:59:13;;;;;;;7.72;4.63;;;0.40;99.90;;;;;;2603509;54;20131;31
2023/04/04 02:01:48;;;;;;;11.30;5.85;;;0.30;99.90;;;;;;2603220;54;20904;31
2023/04/04 02:04:25;;;;;;;;;;;0.30;99.90;;;;;;2621833;46;20064;31
2023/04/04 02:07:02;;;;;;;11.13;5.20;;;0.30;99.90;;;;;;2603188;54;19946;31
2023/04/04 02:09:38;;;;;;;10.85;4.65;;;0.30;99.90;;;;;;2603294;54;20894;31
2023/04/04 02:12:15;;;;;;;11.00;5.10;;;0.30;99.90;;;;;;2602603;54;20886;31
2023/04/04 02:14:53;;;;;;;13.70;4.80;;;0.30;99.90;;;;;;2621687;46;20027;31
2023/04/04 02:17:28;;;;;;;10.55;4.95;;;0.30;99.90;;;;;;2621764;46;20125;31
2023/04/04 02:20:04;;;;;;;11.05;4.90;;;0.30;99.90;;;;;;2603039;54;20082;31
2023/04/04 02:22:38;;;;;;;11.03;4.57;;;0.30;99.90;;;;;;2603164;54;20056;31
2023/04/04 02:25:14;;;;;;;12.80;4.80;;;0.20;99.90;;;;;;2621501;47;20034;31
2023/04/04 02:27:50;;;;;;;9.55;4.30;;;0.20;99.90;;;;;;2603192;54;20760;31
2023/04/04 02:30:29;;;;;;;13.30;4.80;;;0.30;99.90;;;;;;2603101;54;20030;31
2023/04/04 02:33:08;;;;;;;10.10;4.93;;;0.30;99.90;;;;;;2621593;47;20057;31
2023/04/04 02:35:45;;;;;;;8.18;5.50;;;0.30;99.90;;;;;;2603015;54;20072;31
2023/04/04 02:38:21;;;;;;;13.00;5.07;;;0.30;99.90;;;;;;2603039;54;21480;31
2023/04/04 02:40:58;;;;;;;;;;;0.30;99.90;;;;;;2603267;54;20756;31
2023/04/04 02:43:33;;;;;;;;;;;0.20;99.90;;;;;;2603527;54;20725;31
2023/04/04 02:46:15;;;;;;;8.95;5.35;;;0.20;99.90;;;;;;2603124;54;19938;31
2023/04/04 02:49:01;;;;;;;11.55;5.70;;;0.20;99.90;;;;;;2603302;54;20030;31
2023/04/04 02:51:38;;;;;;;9.20;4.60;;;0.20;99.90;;;;;;2603151;54;20034;31
2023/04/04 02:54:16;;;;;;;11.53;5.30;;;0.20;99.90;;;;;;2602245;54;20097;31
2023/04/04 02:56:53;;;;;;;9.80;4.75;;;0.20;99.90;;;;;;2602896;54;20030;31
2023/04/04 02:59:29;;;;;;;;;;;0.20;99.90;;;;;;2602693;54;20939;31
2023/04/04 03:02:07;;;;;;;8.35;4.70;;;0.20;99.90;;;;;;2602873;54;20812;31
2023/04/04 03:04:45;;;;;;;12.63;5.70;;;0.20;99.90;;;;;;2603688;54;20052;31
2023/04/04 03:07:23;;;;;;;15.95;5.75;;;0.10;99.90;;;;;;2603680;54;20862;31
2023/04/04 03:10:01;;;;;;;13.40;5.97;;;0.10;99.90;;;;;;2603037;54;20761;31
2023/04/04 03:12:36;;;;;;;13.07;6.47;;;0.00;99.90;;;;;;2603657;54;20128;31
2023/04/04 03:15:17;;;;;;;10.13;5.77;;;-0.10;99.90;;;;;;2603740;54;20861;31
2023/04/04 03:17:57;;;;;;;10.27;5.88;;;-0.10;99.90;;;;;;2622025;46;20042;31
2023/04/04 03:20:35;;;;;;;10.80;5.60;;;-0.10;99.90;;;;;;2603710;54;20023;31
2023/04/04 03:23:11;;;;;;;16.20;6.90;;;-0.10;99.90;;;;;;2617648;46;20656;31
2023/04/04 03:25:46;;;;;;;11.60;6.68;;;-0.10;99.90;;;;;;2603630;54;20081;31
2023/04/04 03:28:22;;;;;;;15.32;8.45;;;-0.20;99.90;;;;;;2603705;54;20881;31
2023/04/04 03:31:00;;;;;;;17.55;7.90;;;-0.10;99.90;;;;;;2602935;54;20057;31
2023/04/04 03:33:41;;;;;;;14.35;7.38;;;-0.20;99.90;;;;;;2603571;54;20670;31
2023/04/04 03:36:16;;;;;;;15.02;6.95;;;-0.20;99.90;;;;;;2603783;54;19950;31
2023/04/04 03:38:55;;;;;;;13.27;7.55;;;-0.20;99.90;;;;;;2603637;54;20906;31
2023/04/04 03:41:31;;;;;;;15.03;7.87;;;-0.20;99.90;;;;;;2618012;46;20053;31
2023/04/04 03:44:08;;;;;;;13.48;7.95;;;-0.20;99.90;;;;;;2603718;54;20092;31
2023/04/04 03:46:45;;;;;;;13.02;7.00;;;-0.30;99.90;;;;;;2603840;54;20022;31
2023/04/04 03:49:24;;;;;;;13.68;6.82;;;-0.20;99.90;;;;;;2622008;46;20898;31
2023/04/04 03:52:01;;;;;;;15.43;6.95;;;-0.30;99.90;;;;;;2603641;54;20667;31
2023/04/04 03:54:38;;;;;;;13.95;7.90;;;-0.30;99.90;;;;;;2603650;54;20782;31
2023/04/04 03:57:15;;;;;;;14.35;7.40;;;-0.30;99.90;;;;;;2702258;39;21653;31
2023/04/04 03:59:51;;;;;;;16.60;8.20;;;-0.30;99.90;;;;;;2603527;54;20758;31
2023/04/04 04:02:29;;;;;;;18.50;9.70;;;-0.30;99.90;;;;;;2702074;39;20532;31
2023/04/04 04:05:09;;;;;;;13.98;9.27;;;-0.30;99.90;;;;;;2603650;54;20152;31
2023/04/04 04:07:46;;;;;;;14.07;8.25;;;-0.30;99.90;;;;;;2603548;54;20580;31
2023/04/04 04:10:27;;;;;;;17.10;8.98;;;-0.30;99.90;;;;;;2603741;54;20044;31
2023/04/04 04:13:03;;;;;;;14.00;7.50;;;-0.30;99.90;;;;;;2602804;54;21307;31
2023/04/04 04:15:44;;;;;;;14.95;7.30;;;-0.30;99.90;;;;;;2603692;54;20034;31
2023/04/04 04:18:26;;;;;;;14.40;7.18;;;-0.20;99.90;;;;;;2603556;54;20857;31
2023/04/04 04:21:10;;;;;;;13.68;6.55;;;-0.30;99.90;;;;;;2603791;54;20053;31
2023/04/04 04:23:51;;;;;;;12.80;6.40;;;-0.30;99.90;;;;;;2603549;54;20082;31
2023/04/04 04:26:27;;;;;;;14.23;7.18;;;-0.20;99.90;;;;;;2603618;54;20051;31
2023/04/04 04:29:06;;;;;;;15.80;6.50;;;-0.30;99.90;;;;;;2621974;46;20754;31
2023/04/04 04:31:46;;;;;;;14.60;6.57;;;-0.30;99.90;;;;;;2621650;46;20022;31
2023/04/04 04:34:21;;;;;;;13.55;6.30;;;-0.30;99.90;;;;;;2603147;54;20335;31
2023/04/04 04:37:05;;;;;;;10.90;5.85;;;-0.30;99.90;;;;;;2618062;46;20882;31
2023/04/04 04:39:50;;;;;;;12.85;5.95;;;-0.20;99.90;;;;;;2603680;54;20033;31
2023/04/04 04:42:45;;;;;;;13.43;5.63;;;-0.30;99.90;;;;;;2699716;39;21455;31
2023/04/04 04:45:28;;;;;;;13.32;5.43;;;-0.20;99.90;;;;;;2603629;54;20074;31
2023/04/04 04:48:12;;;;;;;10.90;6.10;;;-0.30;99.90;;;;;;2603560;54;20846;31
2023/04/04 04:50:53;;;;;;;13.05;5.30;;;-0.30;99.90;;;;;;2621954;46;20026;31
2023/04/04 04:53:45;;;;;;;13.65;6.38;;;-0.20;99.90;;;;;;2603125;54;20065;31
2023/04/04 04:56:19;;;;;;;15.88;5.90;;;-0.20;99.90;;;;;;2621912;46;20902;31
2023/04/04 04:58:59;;;;;;;12.03;6.43;;;-0.30;99.90;;;;;;2602860;54;20918;31
2023/04/04 05:01:34;;;;;;;11.80;6.75;;;-0.20;99.90;;;;;;2621637;46;20255;31
2023/04/04 05:04:10;;;;;;;15.17;6.90;;;-0.20;99.90;;;;;;2603356;54;19997;31
2023/04/04 05:06:55;;;;;;;17.55;7.70;;;-0.20;99.90;;;;;;2603229;54;20049;31
2023/04/04 05:09:35;;;;;;;14.52;7.90;;;-0.20;99.90;;;;;;2620496;46;20092;31
2023/04/04 05:12:10;;;;;;;15.75;7.55;;;-0.20;99.90;;;;;;2603345;54;20029;31
2023/04/04 05:14:50;;;;;;;12.40;7.43;;;-0.20;99.90;;;;;;2622045;46;20869;31
2023/04/04 05:17:27;;;;;;;18.50;6.50;;;-0.20;99.90;;;;;;2603411;54;20135;31
2023/04/04 05:20:13;;;;;;;11.55;6.75;;;-0.20;99.90;;;;;;2603513;54;20877;31
2023/04/04 05:22:51;;;;;;;14.55;7.00;;;-0.20;99.90;;;;;;2603336;54;20853;31
2023/04/04 05:25:41;;;;;;;15.52;7.13;;;-0.20;99.90;;;;;;2603222;54;20456;31
2023/04/04 05:28:19;;;;;;;15.37;8.03;;;-0.20;99.90;;;;;;2621622;46;20026;31
2023/04/04 05:30:58;;;;;;;15.80;6.85;;;-0.10;99.90;;;;;;2603383;54;20269;31
2023/04/04 05:33:38;;;;;;;12.27;6.07;;;-0.10;99.90;;;;;;2603164;54;20913;31
2023/04/04 05:36:28;;;;;;;15.70;6.05;;;-0.10;99.90;;;;;;2621434;46;20559;31
2023/04/04 05:39:10;;;;;;;10.33;5.10;;;-0.10;99.90;;;;;;2603287;54;20029;31
2023/04/04 05:42:00;;;;;;;14.20;5.60;;;0.00;99.90;;;;;;2603287;54;19934;31
2023/04/04 05:44:41;;;;;;;12.20;6.13;;;0.00;99.90;;;;;;2773263;31;20672;31
2023/04/04 05:47:20;;;;;;;10.50;5.55;;;0.00;99.90;;;;;;2603193;54;21586;31
2023/04/04 05:49:57;;;;;;;11.95;6.65;;;0.10;99.90;;;;;;2602343;54;20939;31
2023/04/04 05:52:35;;;;;;;12.50;6.80;;;0.10;99.90;;;;;;2603287;54;20046;31
2023/04/04 05:55:13;;;;;;;12.20;5.60;;;0.10;99.90;;;;;;2602355;54;20780;31
2023/04/04 05:57:57;;;;;;;12.60;6.43;;;0.10;99.90;;;;;;2602977;54;21718;31
2023/04/04 06:00:48;;;;;;;25.58;6.35;;;0.20;99.90;;;;;;2603085;54;20080;31
2023/04/04 06:03:25;;;;;;;11.40;5.82;;;0.30;99.90;;;;;;2603050;54;20081;31
2023/04/04 06:06:03;;;;;;;10.97;5.93;;;0.30;99.90;;;;;;2621740;46;20034;31
2023/04/04 06:08:41;;;;;;;6.95;4.38;;;0.40;99.90;;;;;;2603356;54;19962;31
2023/04/04 06:11:27;;;;;;;8.57;4.85;;;0.40;99.90;;;;;;2603446;54;20026;31
2023/04/04 06:14:24;;;;;;;9.97;4.97;;;0.50;99.90;;;;;;2621400;46;20635;31
2023/04/04 06:17:00;;;;;;;9.50;4.35;;;0.50;99.90;;;;;;2602901;54;20060;31
2023/04/04 06:19:38;;;;;;;8.13;3.80;;;0.60;99.90;;;;;;2603203;54;20022;31
2023/04/04 06:22:14;;;;;;;9.00;3.50;;;0.70;99.90;;;;;;2603085;54;20085;31
2023/04/04 06:24:54;;;;;;;8.85;3.50;;;0.70;99.90;;;;;;2621834;47;20767;31
2023/04/04 06:27:34;;;;;;;8.70;3.70;;;0.70;99.90;;;;;;2603167;54;20099;31
2023/04/04 06:30:18;;;;;;;10.18;3.85;;;0.80;99.90;;;;;;2603136;54;20087;31
2023/04/04 06:35:33;;;;;;;8.50;3.57;;;0.80;99.90;;;;;;2603453;54;20100;31
2023/04/04 06:38:10;;;;;;;8.40;3.73;;;0.80;99.90;;;;;;2603839;54;20246;31
2023/04/04 06:40:46;;;;;;;9.52;4.70;;;0.90;99.90;;;;;;2603816;54;20794;31
2023/04/04 06:43:22;;;;;;;10.50;4.60;;;0.90;99.90;;;;;;2604010;54;19934;31
2023/04/04 06:46:00;;;;;;;9.82;3.90;;;1.00;99.90;;;;;;2603932;54;20113;31
2023/04/04 06:48:37;;;;;;;7.20;3.60;;;1.00;99.90;;;;;;2603723;54;20846;31
2023/04/04 06:51:17;;;;;;;7.20;3.95;;;1.10;99.90;;;;;;2702770;39;21042;31
2023/04/04 06:53:54;;;;;;;8.75;3.45;;;1.10;99.90;;;;;;2622284;46;20026;31
2023/04/04 06:56:33;;;;;;;6.68;3.00;;;1.20;99.90;;;;;;2603798;54;20029;31
2023/04/04 06:59:13;;;;;;;8.82;3.97;;;1.20;99.90;;;;;;2603092;54;20755;31
2023/04/04 07:01:52;;;;;;;9.85;3.10;;;1.20;99.90;;;;;;2603816;54;20815;31
2023/04/04 07:04:31;;;;;;;7.50;3.33;;;1.20;99.90;;;;;;2603867;54;20022;31
2023/04/04 07:07:07;;;;;;;7.47;3.30;;;1.30;99.90;;;;;;2603962;54;19935;31
2023/04/04 07:09:47;;;;;;;8.87;4.23;;;1.40;99.90;;;;;;2622311;46;20032;31
2023/04/04 07:12:24;;;;;;;7.25;2.80;;;1.50;99.90;;;;;;2603782;54;20336;31
2023/04/04 07:15:01;;;;;;;10.60;3.17;;;1.50;99.90;;;;;;2603627;54;20046;31
2023/04/04 07:17:43;;;;;;;7.65;3.08;;;1.60;99.90;;;;;;2603764;54;20488;31
2023/04/04 07:20:19;;;;;;;6.50;3.00;;;1.60;99.90;;;;;;2603764;54;20030;31
2023/04/04 07:22:56;;;;;;;5.10;2.55;;;1.60;99.90;;;;;;2603651;54;20728;31
2023/04/04 07:25:32;;;;;;;5.77;2.43;;;1.70;99.90;;;;;;2603637;54;20038;31
2023/04/04 07:28:11;;;;;;;10.15;3.03;;;1.60;99.90;;;;;;2622141;46;20056;31
2023/04/04 07:30:48;;;;;;;5.60;2.27;;;1.70;99.90;;;;;;2720757;39;20476;31
2023/04/04 07:33:26;;;;;;;5.50;2.00;;;1.70;99.90;;;;;;2603924;54;20081;31
2023/04/04 07:36:04;;;;;;;7.07;2.30;;;1.70;99.90;;;;;;2621943;46;20027;31
2023/04/04 07:38:39;;;;;;;7.47;2.60;;;1.80;99.90;;;;;;2720770;39;21556;31
2023/04/04 07:41:20;;;;;;;8.23;2.87;;;1.70;99.90;;;;;;2602748;54;20592;31
2023/04/04 07:43:56;;;;;;;5.90;2.50;;;1.80;99.90;;;;;;2602891;54;20261;31
2023/04/04 07:46:32;;;;;;;4.85;2.80;;;1.80;99.90;;;;;;2621614;46;20116;31
2023/04/04 07:49:12;;;;;;;6.65;3.00;;;1.90;99.90;;;;;;2603794;54;20052;31
2023/04/04 07:51:49;;;;;;;6.72;3.38;;;1.90;99.90;;;;;;2603724;54;20111;31
2023/04/04 07:54:26;;;;;;;6.77;2.97;;;2.00;99.90;;;;;;2603638;54;20035;31
2023/04/04 07:57:04;;;;;;;4.23;1.73;;;2.10;99.90;;;;;;2603564;54;20095;31
2023/04/04 07:59:41;;;;;;;4.30;2.15;;;2.00;99.90;;;;;;2702430;39;20996;31
2023/04/04 08:02:16;;;;;;;9.45;1.90;;;2.00;99.90;;;;;;2603580;54;20033;31
2023/04/04 08:04:55;;;;;;;5.22;2.00;;;2.00;99.90;;;;;;2603595;54;20034;31
2023/04/04 08:07:32;;;;;;;5.00;2.33;;;1.90;99.90;;;;;;2720584;39;21393;31
2023/04/04 08:10:10;;;;;;;5.50;2.50;;;1.90;99.90;;;;;;2603117;54;21016;31
2023/04/04 08:12:46;;;;;;;6.25;3.20;;;1.90;99.90;;;;;;2603430;54;20914;31
2023/04/04 08:15:21;;;;;;;6.40;1.65;;;1.80;99.90;;;;;;2720511;39;20493;31
2023/04/04 08:17:57;;;;;;;10.20;2.65;;;1.80;99.90;;;;;;2702070;39;21558;31
2023/04/04 08:20:37;;;;;;;3.63;1.80;;;1.80;99.90;;;;;;2602886;54;20882;31
2023/04/04 08:23:14;;;;;;;9.07;3.07;;;1.70;99.90;;;;;;2621935;46;20049;31
2023/04/04 08:25:51;;;;;;;7.72;2.20;;;1.80;99.90;;;;;;2603535;54;21303;31
2023/04/04 08:28:26;;;;;;;4.33;2.03;;;1.80;99.90;;;;;;2621764;46;20027;31
2023/04/04 08:31:02;;;;;;;6.82;2.15;;;1.80;99.90;;;;;;2622123;46;20244;31
2023/04/04 08:33:39;;;;;;;4.93;2.13;;;1.90;99.90;;;;;;2603639;54;20022;31
2023/04/04 08:36:26;;;;;;;6.47;1.63;;;2.00;99.90;;;;;;2773980;31;21059;31
2023/04/04 08:39:02;;;;;;;3.75;1.85;;;2.00;99.90;;;;;;2621821;46;20899;31
2023/04/04 08:41:38;;;;;;;7.45;3.17;;;2.00;99.90;;;;;;2603282;54;20099;31
2023/04/04 08:44:14;;;;;;;10.95;3.58;;;2.10;99.90;;;;;;2603641;54;20815;31
2023/04/04 08:46:48;;;;;;;5.68;2.55;;;2.10;99.90;;;;;;2603377;54;20937;31
2023/04/04 08:49:26;;;;;;;7.35;2.78;;;2.10;99.90;;;;;;2603404;54;20053;31
2023/04/04 08:52:06;;;;;;;3.83;1.65;;;2.10;99.90;;;;;;2603438;54;20071;31
2023/04/04 08:54:45;;;;;;;6.90;2.83;;;2.10;99.90;;;;;;2603274;54;20889;31
2023/04/04 08:57:18;;;;;;;5.03;1.90;;;2.20;99.90;;;;;;2603381;54;20053;31
2023/04/04 08:59:55;;;;;;;8.32;2.80;;;2.30;99.90;;;;;;2603285;54;20053;31
2023/04/04 09:02:31;;;;;;;;;;;2.40;99.90;;;;;;2702073;39;20505;31
2023/04/04 09:05:08;;;;;;;11.15;6.70;;;2.50;99.90;;;;;;2603335;54;19934;31
2023/04/04 09:07:47;;;;;;;17.95;3.28;;;2.60;99.90;;;;;;2621938;46;20049;31
2023/04/04 09:10:23;;;;;;;6.55;1.80;;;2.60;99.90;;;;;;2603388;54;20156;31
2023/04/04 09:12:58;;;;;;;3.38;1.65;;;2.70;99.90;;;;;;2603452;54;20577;31
2023/04/04 09:15:48;;;;;;;5.23;2.07;;;2.60;99.90;;;;;;2603393;54;20026;31
2023/04/04 09:18:24;;;;;;;5.18;2.15;;;2.70;99.90;;;;;;2603486;54;20242;31
2023/04/04 09:21:00;;;;;;;8.57;2.83;;;2.70;99.90;;;;;;2603527;54;20030;31
2023/04/04 09:23:42;;;;;;;4.35;2.00;;;2.70;99.90;;;;;;2701824;39;20545;31
2023/04/04 09:26:22;;;;;;;6.18;2.20;;;2.70;99.90;;;;;;2603287;54;20099;31
2023/04/04 09:28:58;;;;;;;4.40;2.13;;;2.80;99.90;;;;;;2701583;39;20531;31
2023/04/04 09:31:33;;;;;;;5.15;2.50;;;2.80;99.90;;;;;;2603300;54;20576;31
2023/04/04 09:34:09;;;;;;;4.90;2.23;;;2.90;99.90;;;;;;2603301;54;20030;31
2023/04/04 09:36:45;;;;;;;6.80;2.28;;;2.90;99.90;;;;;;2621732;46;20026;31
2023/04/04 09:39:24;;;;;;;4.75;2.10;;;3.00;99.90;;;;;;2603132;54;21011;31
2023/04/04 09:42:00;;;;;;;5.65;2.42;;;3.10;99.90;;;;;;2603350;54;20139;31
2023/04/04 09:44:35;;;;;;;4.13;2.20;;;3.20;99.90;;;;;;2603263;54;19938;31
2023/04/04 09:47:25;;;;;;;5.13;1.88;;;3.20;99.90;;;;;;2621567;46;20033;31
2023/04/04 09:50:08;;;;;;;5.70;2.42;;;3.30;99.90;;;;;;2701838;39;20536;31
2023/04/04 09:52:45;;;;;;;3.85;2.17;;;3.30;99.90;;;;;;2603193;54;20592;31
2023/04/04 09:55:25;;;;;;;6.75;3.10;;;3.40;99.90;;;;;;2621644;46;20030;31
2023/04/04 09:58:01;;;;;;;5.15;1.90;;;3.40;99.90;;;;;;2622006;46;20874;31
2023/04/04 10:00:38;;;;;;;8.18;2.33;;;3.40;99.90;;;;;;2621747;46;20131;31
2023/04/04 10:03:16;;;;;;;4.97;1.73;;;3.50;99.90;;;;;;2621755;46;20828;31
2023/04/04 10:05:57;;;;;;;6.25;2.90;;;3.60;99.90;;;;;;2602493;54;20757;31
2023/04/04 10:08:33;;;;;;;4.80;1.83;;;3.60;99.90;;;;;;2621667;46;20085;31
2023/04/04 10:11:15;;;;;;;6.63;1.83;;;3.70;99.90;;;;;;2603011;54;20771;31
2023/04/04 10:13:51;;;;;;;9.07;1.90;;;3.70;99.90;;;;;;2602290;54;20912;31
2023/04/04 10:16:28;;;;;;;5.50;2.10;;;3.70;99.90;;;;;;2603142;54;20273;31
2023/04/04 10:19:04;;;;;;;4.60;2.10;;;3.80;99.90;;;;;;2621445;46;20023;31
2023/04/04 10:21:39;;;;;;;;;;;3.80;99.90;;;;;;2701955;39;20520;31
2023/04/04 10:24:17;;;;;;;5.95;2.65;;;3.90;99.90;;;;;;2621609;46;19946;31
2023/04/04 10:26:57;;;;;;;4.35;1.98;;;3.90;99.90;;;;;;2603196;54;20893;31
2023/04/04 10:29:32;;;;;;;8.45;2.13;;;4.00;99.90;;;;;;2603090;54;20045;31
2023/04/04 10:32:08;;;;;;;3.90;2.03;;;4.00;99.90;;;;;;2603149;54;20839;31
2023/04/04 10:34:47;;;;;;;4.40;1.70;;;4.00;99.90;;;;;;2621393;47;20027;31
2023/04/04 10:37:25;;;;;;;3.83;1.77;;;4.10;99.90;;;;;;2621361;47;20900;31
2023/04/04 10:40:04;;;;;;;4.13;1.42;;;4.10;99.90;;;;;;2602964;54;20868;31
2023/04/04 10:42:46;;;;;;;4.05;1.50;;;4.00;99.90;;;;;;2602968;54;20027;31
2023/04/04 10:45:25;;;;;;;4.50;2.20;;;4.00;99.90;;;;;;2602973;54;20850;31
2023/04/04 10:48:04;;;;;;;3.15;1.58;;;4.00;99.90;;;;;;2603153;54;20026;31
2023/04/04 10:50:42;;;;;;;5.43;1.70;;;4.00;99.90;;;;;;2602851;54;20863;31
2023/04/04 10:53:18;;;;;;;3.70;1.10;;;3.90;99.90;;;;;;2602896;54;20053;31
2023/04/04 10:55:59;;;;;;;3.95;1.45;;;4.00;99.90;;;;;;2621596;47;20776;31
2023/04/04 10:58:44;;;;;;;4.38;1.42;;;4.00;99.90;;;;;;2602977;54;20922;31
2023/04/04 11:01:22;;;;;;;4.72;1.67;;;4.30;99.90;;;;;;2602702;54;20049;31
2023/04/04 11:04:20;;;;;;;4.57;1.70;;;4.20;99.90;;;;;;2602598;54;20026;31
2023/04/04 11:07:13;;;;;;;5.25;1.60;;;4.30;99.90;;;;;;2603009;54;20820;31
2023/04/04 11:09:53;;;;;;;6.10;1.95;;;4.30;99.90;;;;;;2602693;54;20596;31
2023/04/04 11:12:33;;;;;;;4.70;2.67;;;4.30;99.90;;;;;;2602894;54;21409;31
2023/04/04 11:15:16;;;;;;;4.20;2.10;;;4.20;99.90;;;;;;2701259;39;21629;31
2023/04/04 11:18:02;;;;;;;4.40;1.90;;;4.10;99.90;;;;;;2602936;54;20026;31
2023/04/04 11:23:27;;;;;;;7.05;1.80;;;4.00;99.90;;;;;;2603556;54;20081;31
2023/04/04 11:26:02;;;;;;;;;;;3.90;99.90;;;;;;2603971;54;20042;31
2023/04/04 11:28:48;;;;;;;6.45;1.90;;;3.90;99.90;;;;;;2622372;46;19939;31
2023/04/04 11:31:31;;;;;;;5.75;1.90;;;3.90;99.90;;;;;;2603445;54;20054;31
2023/04/04 11:34:09;;;;;;;5.85;2.20;;;3.90;99.90;;;;;;2622186;46;20029;31
2023/04/04 11:36:54;;;;;;;3.88;1.58;;;4.10;99.90;;;;;;2603767;54;20030;31
2023/04/04 11:39:33;;;;;;;6.20;1.90;;;4.30;99.90;;;;;;2603703;54;20049;31
2023/04/04 11:42:09;;;;;;;5.00;2.28;;;4.30;99.90;;;;;;2603693;54;20031;31
2023/04/04 11:44:43;;;;;;;6.63;2.35;;;4.30;99.90;;;;;;2621653;46;20910;31
2023/04/04 11:47:23;;;;;;;6.45;2.15;;;4.10;99.90;;;;;;2622199;46;20034;31
2023/04/04 11:50:03;;;;;;;4.80;2.05;;;4.10;99.90;;;;;;2603553;54;20085;31
2023/04/04 11:52:40;;;;;;;5.25;2.20;;;4.10;99.90;;;;;;2621996;46;20053;31
2023/04/04 11:55:20;;;;;;;7.20;3.05;;;4.20;99.90;;;;;;2603821;54;20026;31
2023/04/04 11:57:58;;;;;;;10.45;2.03;;;4.30;99.90;;;;;;2603608;54;20160;31
2023/04/04 12:00:34;;;;;;;4.70;2.08;;;4.40;99.90;;;;;;2603695;54;20030;31
2023/04/04 12:03:12;;;;;;;;;;;4.50;99.90;;;;;;2604001;54;20089;31
2023/04/04 12:05:48;;;;;;;5.07;1.55;;;4.40;99.90;;;;;;2622149;46;21492;31
2023/04/04 12:08:23;;;;;;;;;;;4.40;99.90;;;;;;2603841;54;20099;31
2023/04/04 12:10:59;;;;;;;10.43;2.90;;;4.40;99.90;;;;;;2603238;54;20771;31
2023/04/04 12:13:34;;;;;;;;;;;4.40;99.90;;;;;;2622213;46;20038;31
2023/04/04 12:16:08;;;;;;;7.65;2.28;;;4.40;99.90;;;;;;2603649;54;19934;31
2023/04/04 12:18:47;;;;;;;5.30;1.77;;;4.40;99.90;;;;;;2621954;46;20604;31
2023/04/04 12:21:22;;;;;;;6.82;2.97;;;4.40;99.90;;;;;;2603382;54;21781;31
2023/04/04 12:23:58;;;;;;;6.45;2.10;;;4.50;99.90;;;;;;2622100;46;20549;31
2023/04/04 12:26:33;;;;;;;6.87;2.53;;;4.40;99.90;;;;;;2603643;54;20870;31
2023/04/04 12:29:09;;;;;;;4.53;1.90;;;4.40;99.90;;;;;;2621989;46;20034;31
2023/04/04 12:31:46;;;;;;;3.65;2.10;;;4.30;99.90;;;;;;2603562;54;20044;31
2023/04/04 12:34:25;;;;;;;5.97;2.00;;;4.20;99.90;;;;;;2614562;46;19934;31
2023/04/04 12:37:01;;;;;;;6.43;2.15;;;4.10;99.90;;;;;;2603428;54;20643;31
2023/04/04 12:39:42;;;;;;;5.57;2.00;;;4.00;99.90;;;;;;2622027;46;20030;31
2023/04/04 12:42:20;;;;;;;6.60;2.60;;;3.90;99.90;;;;;;2603597;54;20045;31
2023/04/04 12:44:58;;;;;;;7.50;3.00;;;3.90;99.90;;;;;;2621638;46;20022;31
2023/04/04 12:47:33;;;;;;;7.32;2.58;;;3.90;99.90;;;;;;2602959;54;19942;31
2023/04/04 12:50:15;;;;;;;;;;;3.90;99.90;;;;;;2603664;54;20029;31
2023/04/04 12:52:53;;;;;;;4.97;2.60;;;3.90;99.90;;;;;;2603490;54;20002;31
2023/04/04 12:55:39;;;;;;;5.00;2.37;;;3.90;99.90;;;;;;2621800;46;20612;31
2023/04/04 12:58:17;;;;;;;4.38;1.77;;;4.00;99.90;;;;;;2621992;46;19971;31
2023/04/04 13:00:53;;;;;;;5.70;1.50;;;4.10;99.90;;;;;;2615839;46;20767;31
2023/04/04 13:03:27;;;;;;;4.25;2.10;;;4.10;99.90;;;;;;2701972;39;22581;31
2023/04/04 13:06:07;;;;;;;4.80;2.28;;;4.00;99.90;;;;;;2621605;46;20890;31
2023/04/04 13:08:52;;;;;;;6.47;2.38;;;4.00;99.90;;;;;;2603463;54;20026;31
2023/04/04 13:11:28;;;;;;;6.75;1.95;;;4.00;99.90;;;;;;2603370;54;20754;31
2023/04/04 13:14:02;;;;;;;;;;;4.00;99.90;;;;;;2621593;46;20026;31
2023/04/04 13:16:39;;;;;;;4.25;1.83;;;3.90;99.90;;;;;;2621691;46;19985;31
2023/04/04 13:19:13;;;;;;;;;;;3.90;99.90;;;;;;2603522;54;20576;31
2023/04/04 13:21:53;;;;;;;5.65;2.03;;;3.90;99.90;;;;;;2603163;54;20004;31
2023/04/04 13:24:30;;;;;;;3.72;1.70;;;3.90;99.90;;;;;;2622115;46;20042;31
2023/04/04 13:27:07;;;;;;;7.38;2.47;;;3.90;99.90;;;;;;2603440;54;20877;31
2023/04/04 13:29:42;;;;;;;4.45;2.00;;;4.00;99.90;;;;;;2603290;54;20100;31
2023/04/04 13:32:19;;;;;;;;;;;4.00;99.90;;;;;;2616349;46;20211;31
2023/04/04 13:34:58;;;;;;;4.35;1.90;;;4.00;99.90;;;;;;2603328;54;20772;31
2023/04/04 13:37:39;;;;;;;7.25;3.05;;;4.00;99.90;;;;;;2603240;54;20569;31
2023/04/04 13:40:15;;;;;;;5.15;1.50;;;4.00;99.90;;;;;;2622018;46;20083;31
2023/04/04 13:42:51;;;;;;;4.03;2.20;;;4.00;99.90;;;;;;2603253;54;20587;31
2023/04/04 13:45:28;;;;;;;4.50;1.80;;;4.00;99.90;;;;;;2602323;54;20049;31
2023/04/04 13:48:04;;;;;;;7.95;2.30;;;4.00;99.90;;;;;;2602481;54;20926;31
2023/04/04 13:50:40;;;;;;;7.00;2.03;;;4.00;99.90;;;;;;2603136;54;20119;31
2023/04/04 13:53:23;;;;;;;4.55;1.83;;;4.00;99.90;;;;;;2603437;54;20026;31
2023/04/04 13:56:02;;;;;;;7.33;2.07;;;4.10;99.90;;;;;;2603317;54;19935;31
2023/04/04 13:58:52;;;;;;;5.55;1.50;;;4.10;99.90;;;;;;2603313;54;20026;31
2023/04/04 14:01:28;;;;;;;4.63;1.52;;;4.10;99.90;;;;;;2603126;54;20045;31
2023/04/04 14:04:10;;;;;;;5.93;2.33;;;4.20;99.90;;;;;;2604484;46;20077;31
2023/04/04 14:06:58;;;;;;;6.87;1.70;;;4.30;99.90;;;;;;2603218;54;20840;31
2023/04/04 14:09:36;;;;;;;7.28;2.08;;;4.40;99.90;;;;;;2603133;54;20140;31